Time;durP1;ratioP1;P1;durP2;ratioP2;P2;SDS_P1;SDS_P2;PMS_P1;PMS_P2;Temp;Humidity;BMP_temperature;BMP_pressure;BME280_temperature;BME280_humidity;BME280_pressure;Samples;Min_cycle;Max_cycle;Signal;HPM_P1;HPM_P2
2022/05/27 00:00:19;;;;;;;12.38;11.13;;;;;;;18.38;67.37;101193.44;5008894;28;20041;-86
2022/05/27 00:02:47;;;;;;;13.88;11.57;;;;;;;18.49;67.68;101205.63;4974762;28;20040;-84
2022/05/27 00:05:15;;;;;;;13.38;11.45;;;;;;;18.52;67.66;101206.09;4991785;28;20045;-83
2022/05/27 00:07:41;;;;;;;15.85;10.80;;;;;;;18.51;67.20;101214.44;4995971;28;20038;-84
2022/05/27 00:10:07;;;;;;;;;;;;;;;18.48;67.78;101209.41;5011218;28;20034;-84
2022/05/27 00:12:35;;;;;;;12.35;10.52;;;;;;;18.37;67.48;101207.25;4961910;28;20183;-85
2022/05/27 00:15:03;;;;;;;9.95;8.95;;;;;;;18.39;66.27;101205.16;4973633;28;20050;-84
2022/05/27 00:17:33;;;;;;;9.80;8.80;;;;;;;18.40;66.07;101196.78;4960368;28;20034;-82
2022/05/27 00:20:00;;;;;;;12.63;9.02;;;;;;;18.32;66.28;101203.22;4989902;28;20038;-83
2022/05/27 00:22:28;;;;;;;11.05;9.07;;;;;;;18.41;66.15;101209.38;4992436;28;20088;-83
2022/05/27 00:24:58;;;;;;;11.02;9.10;;;;;;;18.34;66.17;101214.75;5008065;28;20030;-83
2022/05/27 00:27:28;;;;;;;13.15;9.02;;;;;;;18.40;65.77;101206.84;4973620;28;20046;-84
2022/05/27 00:29:55;;;;;;;10.52;8.50;;;;;;;18.34;65.72;101198.44;4974232;28;20058;-84
2022/05/27 00:32:21;;;;;;;11.73;8.27;;;;;;;18.32;65.98;101199.66;4986240;28;20042;-83
2022/05/27 00:34:46;;;;;;;;;;;;;;;18.50;65.67;101213.63;4958967;28;20037;-84
2022/05/27 00:37:14;;;;;;;9.90;8.23;;;;;;;18.40;65.75;101194.06;4995474;28;20428;-84
2022/05/27 00:39:44;;;;;;;11.18;8.55;;;;;;;18.38;65.88;101198.03;4981494;28;20063;-86
2022/05/27 00:42:09;;;;;;;9.95;8.32;;;;;;;18.35;65.59;101193.81;4983482;28;20247;-84
2022/05/27 00:44:35;;;;;;;;;;;;;;;18.52;65.43;101210.69;4972639;28;20495;-84
2022/05/27 00:47:10;;;;;;;10.57;7.85;;;;;;;18.38;65.56;101203.47;5003260;28;19920;-84
2022/05/27 00:49:45;;;;;;;11.57;7.97;;;;;;;18.36;65.68;101192.78;4986262;28;20430;-85
2022/05/27 00:52:14;;;;;;;8.32;7.53;;;;;;;18.38;64.93;101203.47;4976972;28;20035;-85
2022/05/27 00:54:40;;;;;;;9.73;7.10;;;;;;;18.27;65.29;101197.53;4972945;28;20479;-84
2022/05/27 00:57:09;;;;;;;;;;;;;;;18.35;65.59;101213.75;4971362;28;20031;-84
2022/05/27 00:59:50;;;;;;;10.25;7.68;;;;;;;18.41;65.32;101219.41;5005455;28;19937;-85
2022/05/27 01:02:16;;;;;;;8.75;7.60;;;;;;;18.41;65.30;101217.53;5003841;28;20038;-86
2022/05/27 01:04:45;;;;;;;11.55;7.32;;;;;;;18.30;65.49;101180.81;4988494;28;20068;-82
2022/05/27 01:07:11;;;;;;;9.95;7.50;;;;;;;18.38;65.26;101192.56;5000292;28;20050;-83
2022/05/27 01:09:39;;;;;;;11.02;7.07;;;;;;;18.50;65.08;101208.16;4989781;28;20127;-85
2022/05/27 01:12:15;;;;;;;7.85;7.05;;;;;;;18.45;65.17;101204.34;4986327;28;20050;-84
2022/05/27 01:14:56;;;;;;;9.82;7.38;;;;;;;18.46;65.06;101200.59;4953297;28;20073;-83
2022/05/27 01:17:40;;;;;;;8.20;7.32;;;;;;;18.53;65.16;101213.19;4973466;28;20053;-85
2022/05/27 01:20:36;;;;;;;11.52;8.43;;;;;;;18.51;65.69;101214.44;4993350;28;20113;-82
2022/05/27 01:23:38;;;;;;;17.08;11.15;;;;;;;18.52;67.08;101213.44;4978083;28;20069;-84
2022/05/27 01:26:03;;;;;;;15.18;11.90;;;;;;;18.51;67.93;101225.34;4960534;28;20071;-84
2022/05/27 01:28:36;;;;;;;;;;;;;;;18.45;68.69;101220.69;4981902;28;20089;-87
2022/05/27 01:31:33;;;;;;;16.50;13.00;;;;;;;18.40;69.40;101223.16;4973605;28;20327;-84
2022/05/27 01:34:25;;;;;;;22.00;14.38;;;;;;;18.32;69.72;101218.72;4982394;28;20026;-86
2022/05/27 01:37:02;;;;;;;19.65;14.57;;;;;;;18.22;70.44;101221.78;4958343;28;20279;-83
2022/05/27 01:39:50;;;;;;;19.20;15.70;;;;;;;18.28;70.74;101231.03;5005403;28;20041;-85
2022/05/27 01:42:49;;;;;;;21.25;16.20;;;;;;;18.17;71.41;101227.00;4970891;28;20054;-86
2022/05/27 01:45:19;;;;;;;21.13;16.80;;;;;;;18.08;72.11;101228.19;4998816;28;20041;-87
2022/05/27 01:48:00;;;;;;;21.88;16.73;;;;;;;18.04;72.15;101219.56;4966538;28;20062;-83
2022/05/27 01:53:53;;;;;;;20.02;17.48;;;;;;;18.08;72.13;101222.72;4986495;28;20026;-84
2022/05/27 01:56:28;;;;;;;25.98;17.63;;;;;;;18.01;72.42;101225.38;4984074;28;20056;-86
2022/05/27 01:59:08;;;;;;;19.25;17.17;;;;;;;18.00;72.77;101222.84;4975010;28;20529;-84
2022/05/27 02:01:39;;;;;;;24.75;17.65;;;;;;;17.97;72.51;101223.25;4966205;28;20142;-83
2022/05/27 02:04:22;;;;;;;23.42;17.75;;;;;;;17.84;72.82;101210.38;4938073;28;20121;-85
2022/05/27 02:06:58;;;;;;;21.80;17.85;;;;;;;17.79;72.81;101210.09;4987217;28;20053;-84
2022/05/27 02:09:33;;;;;;;26.38;17.25;;;;;;;17.90;73.02;101223.19;4952108;28;20129;-85
2022/05/27 02:12:04;;;;;;;22.80;17.55;;;;;;;17.83;73.13;101228.56;4979000;28;20048;-84
2022/05/27 02:14:38;;;;;;;22.45;18.55;;;;;;;17.85;73.13;101231.09;4990146;28;20030;-83
2022/05/27 02:17:10;;;;;;;25.25;18.90;;;;;;;17.71;73.78;101232.81;4985114;28;20494;-83
2022/05/27 02:19:43;;;;;;;29.83;19.35;;;;;;;17.71;73.97;101240.97;4943217;28;20034;-87
2022/05/27 02:22:20;;;;;;;23.48;18.75;;;;;;;17.66;74.07;101229.84;5008882;28;20060;-84
2022/05/27 02:25:13;;;;;;;28.08;18.85;;;;;;;17.68;73.69;101230.50;4956705;28;20491;-84
2022/05/27 02:27:54;;;;;;;27.58;19.85;;;;;;;17.48;74.31;101228.41;4991299;28;20050;-86
2022/05/27 02:30:21;;;;;;;24.63;19.23;;;;;;;17.43;74.31;101230.84;4989810;28;20056;-86
2022/05/27 02:35:48;;;;;;;27.75;19.77;;;;;;;17.44;74.20;101218.97;4988129;28;20506;-86
2022/05/27 02:38:17;;;;;;;25.88;19.08;;;;;;;17.49;74.01;101224.66;4983495;28;20095;-85
2022/05/27 02:41:02;;;;;;;27.33;19.55;;;;;;;17.51;73.59;101227.16;4993170;28;20498;-84
2022/05/27 02:43:40;;;;;;;28.08;19.77;;;;;;;17.34;74.63;101221.13;5018958;28;20038;-87
2022/05/27 02:46:24;;;;;;;24.58;18.75;;;;;;;17.43;74.33;101233.56;5001052;28;20049;-84
2022/05/27 02:49:17;;;;;;;24.05;17.98;;;;;;;17.44;73.60;101235.28;4989536;28;20042;-87
2022/05/27 02:52:30;;;;;;;20.98;16.00;;;;;;;17.45;73.19;101239.66;5002413;28;20413;-85
2022/05/27 02:55:04;;;;;;;18.33;13.73;;;;;;;17.45;72.34;101247.81;4971817;28;20078;-88
2022/05/27 02:57:41;;;;;;;16.50;12.90;;;;;;;17.45;71.74;101242.38;5006911;28;20072;-85
2022/05/27 03:00:25;;;;;;;17.35;12.95;;;;;;;17.50;71.26;101241.81;4957608;28;20139;-85
2022/05/27 03:02:50;;;;;;;20.70;13.05;;;;;;;17.50;70.92;101245.34;5001018;28;20030;-83
2022/05/27 03:05:17;;;;;;;;;;;;;;;17.49;71.06;101248.28;4984786;28;20104;-85
2022/05/27 03:07:58;;;;;;;15.15;12.00;;;;;;;17.47;70.77;101245.75;4991562;28;20372;-84
2022/05/27 03:10:35;;;;;;;17.17;12.02;;;;;;;17.56;70.63;101248.34;5003303;28;20097;-84
2022/05/27 03:13:12;;;;;;;21.80;15.27;;;;;;;17.63;70.81;101243.81;4985622;28;20054;-83
2022/05/27 03:16:08;;;;;;;18.83;13.07;;;;;;;17.65;70.65;101249.91;4973869;28;20039;-84
2022/05/27 03:18:41;;;;;;;21.95;13.05;;;;;;;17.69;70.39;101254.75;4988566;28;20069;-84
2022/05/27 03:21:36;;;;;;;17.02;12.38;;;;;;;17.69;70.28;101243.03;4945525;28;20602;-84
2022/05/27 03:24:39;;;;;;;16.65;11.57;;;;;;;17.81;69.67;101251.56;4991652;28;20030;-83
2022/05/27 03:27:34;;;;;;;14.77;11.13;;;;;;;17.88;69.41;101252.47;4972987;28;20037;-84
2022/05/27 03:30:11;;;;;;;18.90;11.93;;;;;;;17.97;69.26;101258.63;4942557;28;20117;-84
2022/05/27 03:32:39;;;;;;;19.58;11.90;;;;;;;17.95;69.18;101263.41;4940364;28;20125;-83
2022/05/27 03:35:46;;;;;;;17.83;12.40;;;;;;;17.96;69.13;101254.19;4982413;28;20034;-84
2022/05/27 03:38:30;;;;;;;21.08;13.82;;;;;;;18.08;69.59;101264.38;4996919;28;20033;-86
2022/05/27 03:41:20;;;;;;;30.08;16.27;;;;;;;18.06;69.85;101243.84;4974907;28;20045;-87
2022/05/27 03:43:46;;;;;;;28.02;16.77;;;;;;;18.26;69.88;101272.09;4980073;28;20062;-85
2022/05/27 03:46:13;;;;;;;;;;;;;;;18.33;69.60;101267.53;4972492;28;20041;-84
2022/05/27 03:48:45;;;;;;;36.88;16.42;;;;;;;18.26;69.69;101255.75;4984031;28;19925;-86
2022/05/27 03:51:18;;;;;;;24.67;16.40;;;;;;;18.19;70.01;101252.13;4970757;28;20061;-84
2022/05/27 03:56:28;;;;;;;27.30;17.67;;;;;;;18.43;69.22;101266.34;4978829;28;20069;-84
2022/05/27 03:58:54;;;;;;;29.25;17.30;;;;;;;18.47;68.80;101268.47;4992056;28;20050;-83
2022/05/27 04:01:23;;;;;;;;;;;;;;;18.61;68.41;101277.56;4956804;28;20093;-84
2022/05/27 04:03:55;;;;;;;28.02;17.10;;;;;;;18.59;68.55;101268.75;4972580;28;19937;-86
2022/05/27 04:06:21;;;;;;;28.17;16.02;;;;;;;18.66;68.33;101271.50;4942523;28;20585;-86
2022/05/27 04:08:47;;;;;;;23.65;15.85;;;;;;;18.89;67.80;101287.59;4974836;28;20037;-86
2022/05/27 04:11:13;;;;;;;;;;;;;;;18.98;67.29;101280.97;4957275;28;20062;-87
2022/05/27 04:13:40;;;;;;;22.65;13.95;;;;;;;19.00;67.12;101278.88;4973395;28;19928;-87
2022/05/27 04:16:06;;;;;;;22.17;13.57;;;;;;;19.06;66.24;101263.59;4984050;28;20109;-86
2022/05/27 04:18:33;;;;;;;;;;;;;;;19.08;66.48;101281.44;5011797;28;20046;-86
2022/05/27 04:21:01;;;;;;;25.83;15.38;;;;;;;19.22;66.35;101286.94;4991368;28;19922;-85
2022/05/27 04:23:27;;;;;;;26.13;15.05;;;;;;;19.32;65.81;101287.44;4970604;28;20030;-87
2022/05/27 04:25:53;;;;;;;;;;;;;;;19.58;65.33;101292.13;4957020;28;20469;-85
2022/05/27 04:28:19;;;;;;;22.25;13.60;;;;;;;19.71;64.75;101291.34;4978811;28;19925;-87
2022/05/27 04:30:46;;;;;;;;;;;;;;;19.83;63.95;101295.16;4986135;28;20034;-88
2022/05/27 04:33:17;;;;;;;19.83;13.82;;;;;;;19.81;63.43;101269.97;4968127;28;20314;-86
2022/05/27 04:35:49;;;;;;;26.27;13.90;;;;;;;20.04;63.26;101296.84;4959094;28;20034;-92
2022/05/27 04:38:15;;;;;;;28.00;14.23;;;;;;;20.08;62.37;101267.28;5004399;28;20049;-87
2022/05/27 04:40:41;;;;;;;;;;;;;;;20.35;61.80;101279.88;5001326;28;20145;-86
2022/05/27 04:43:08;;;;;;;23.83;13.32;;;;;;;20.34;62.19;101280.91;5021797;28;19940;-86
2022/05/27 04:45:38;;;;;;;19.55;13.40;;;;;;;20.47;61.38;101284.72;4991309;28;20039;-92
2022/05/27 04:48:04;;;;;;;18.80;12.75;;;;;;;20.65;61.01;101282.22;5002247;28;20435;-86
2022/05/27 04:50:31;;;;;;;18.08;12.00;;;;;;;20.69;60.13;101283.44;4984288;28;20030;-85
2022/05/27 04:53:00;;;;;;;15.75;12.00;;;;;;;20.89;60.40;101297.06;4998238;28;20053;-88
2022/05/27 04:55:26;;;;;;;22.83;13.02;;;;;;;21.03;59.94;101295.16;5003003;28;20037;-86
2022/05/27 04:57:55;;;;;;;18.83;11.77;;;;;;;21.20;59.06;101292.78;4992036;28;20035;-85
2022/05/27 05:00:47;;;;;;;16.25;10.80;;;;;;;21.43;58.44;101276.72;4970191;28;20041;-85
2022/05/27 05:03:13;;;;;;;25.27;10.43;;;;;;;21.75;57.80;101292.31;4992349;28;20045;-85
2022/05/27 05:05:39;;;;;;;16.52;10.13;;;;;;;21.94;56.86;101283.16;4987890;28;20478;-86
2022/05/27 05:08:38;;;;;;;18.05;10.65;;;;;;;22.18;56.24;101291.63;4991705;28;20038;-86
2022/05/27 05:11:04;;;;;;;21.00;10.20;;;;;;;22.36;56.41;101304.56;4981873;28;20042;-89
2022/05/27 05:13:33;;;;;;;18.65;10.68;;;;;;;22.30;55.79;101281.66;4974520;28;20053;-86
2022/05/27 05:16:00;;;;;;;13.80;8.85;;;;;;;22.57;54.84;101281.41;4989513;28;20034;-85
2022/05/27 05:18:26;;;;;;;13.15;9.25;;;;;;;22.74;54.52;101291.56;5012505;28;20041;-85
2022/05/27 05:20:58;;;;;;;16.52;10.93;;;;;;;22.83;54.28;101294.84;4996669;28;20503;-85
2022/05/27 05:23:24;;;;;;;16.85;11.15;;;;;;;22.85;54.40;101281.75;5017418;28;20037;-87
2022/05/27 05:25:51;;;;;;;19.35;10.70;;;;;;;23.18;54.20;101297.03;5014905;28;20425;-85
2022/05/27 05:28:20;;;;;;;18.88;11.25;;;;;;;23.41;53.46;101295.47;5012197;28;20132;-88
2022/05/27 05:30:50;;;;;;;14.55;10.55;;;;;;;23.63;52.85;101293.91;4998505;28;20521;-84
2022/05/27 05:33:18;;;;;;;16.75;11.82;;;;;;;23.74;52.22;101279.44;4976159;28;20041;-86
2022/05/27 05:35:48;;;;;;;21.92;10.60;;;;;;;24.05;51.90;101282.97;4995536;28;20050;-89
2022/05/27 05:38:20;;;;;;;14.27;11.45;;;;;;;24.20;50.63;101288.00;4970350;28;20065;-85
2022/05/27 05:40:54;;;;;;;15.35;10.55;;;;;;;24.28;50.28;101273.06;5018628;28;20036;-87
2022/05/27 05:43:40;;;;;;;17.95;12.50;;;;;;;23.98;50.69;101269.34;4991590;28;20042;-89
2022/05/27 05:46:48;;;;;;;18.60;11.85;;;;;;;23.94;51.18;101286.53;4993018;28;20042;-88
2022/05/27 05:49:16;;;;;;;19.20;10.50;;;;;;;24.18;50.35;101277.25;4995145;28;20978;-88
2022/05/27 05:51:45;;;;;;;22.25;12.82;;;;;;;24.29;50.30;101258.28;5005987;28;20030;-87
2022/05/27 05:54:11;;;;;;;18.98;10.75;;;;;;;24.47;49.69;101266.44;4983807;28;20053;-89
2022/05/27 05:56:39;;;;;;;18.00;10.40;;;;;;;24.37;49.79;101260.66;4999265;28;20045;-88
2022/05/27 05:59:10;;;;;;;11.77;9.55;;;;;;;24.59;48.30;101267.28;5000440;28;20034;-88
2022/05/27 06:02:04;;;;;;;12.25;9.82;;;;;;;24.38;48.73;101265.94;4996601;28;20030;-90
2022/05/27 06:04:33;;;;;;;15.43;10.07;;;;;;;24.63;47.85;101262.97;5000360;28;20105;-86
2022/05/27 06:06:59;;;;;;;12.85;9.13;;;;;;;24.68;47.97;101265.00;4975029;28;20113;-90
2022/05/27 06:09:33;;;;;;;12.30;8.77;;;;;;;24.89;47.16;101269.06;4980247;28;20026;-90
2022/05/27 06:12:36;;;;;;;15.85;9.68;;;;;;;24.85;47.26;101263.19;4988675;28;20038;-89
2022/05/27 06:15:04;;;;;;;14.27;9.10;;;;;;;24.91;47.53;101269.66;4977732;28;20449;-85
2022/05/27 06:17:29;;;;;;;12.27;9.35;;;;;;;24.79;47.62;101269.63;4969604;28;20027;-86
2022/05/27 06:19:56;;;;;;;11.23;8.38;;;;;;;24.80;47.99;101248.50;4955883;28;20558;-86
2022/05/27 06:22:24;;;;;;;13.88;8.52;;;;;;;24.97;47.65;101237.59;4957777;28;20070;-93
2022/05/27 06:24:51;;;;;;;13.25;8.38;;;;;;;25.26;46.96;101268.72;4957684;28;20046;-85
2022/05/27 06:27:17;;;;;;;9.48;7.70;;;;;;;25.37;46.20;101250.53;4964188;28;20109;-88
2022/05/27 06:35:16;;;;;;;12.05;7.50;;;;;;;25.53;46.98;101254.41;5005590;28;19937;-85
2022/05/27 06:37:46;;;;;;;12.73;7.55;;;;;;;25.58;46.70;101260.00;4995648;28;20510;-85
2022/05/27 06:40:19;;;;;;;16.85;8.73;;;;;;;25.64;46.87;101237.00;4974373;28;20545;-84
2022/05/27 06:42:45;;;;;;;13.20;8.35;;;;;;;25.68;46.50;101249.19;5006233;28;20042;-86
2022/05/27 06:45:13;;;;;;;11.45;7.63;;;;;;;25.82;45.94;101256.03;4967026;28;20041;-84
2022/05/27 06:47:39;;;;;;;11.18;7.30;;;;;;;26.00;46.50;101251.44;4970055;28;20026;-87
2022/05/27 06:50:08;;;;;;;13.73;7.65;;;;;;;26.21;45.92;101255.38;4983814;28;20053;-87
2022/05/27 06:52:37;;;;;;;9.10;7.00;;;;;;;26.33;45.05;101254.16;4953621;28;20054;-86
2022/05/27 06:55:04;;;;;;;10.57;6.97;;;;;;;26.09;46.19;101255.44;4966474;28;20076;-88
2022/05/27 06:57:34;;;;;;;11.85;6.63;;;;;;;26.45;46.17;101256.00;4991647;28;20026;-88
2022/05/27 07:00:00;;;;;;;10.05;6.95;;;;;;;26.51;45.48;101258.59;4992970;28;20034;-88
2022/05/27 07:02:28;;;;;;;9.50;6.85;;;;;;;26.23;46.16;101253.19;4973225;28;20030;-87
2022/05/27 07:04:54;;;;;;;8.20;7.00;;;;;;;25.72;47.46;101253.13;4985981;28;20124;-83
2022/05/27 07:07:21;;;;;;;8.68;6.85;;;;;;;25.53;48.43;101257.16;4975003;28;20498;-86
2022/05/27 07:09:51;;;;;;;7.35;6.03;;;;;;;25.32;48.22;101234.75;4962650;28;20426;-86
2022/05/27 07:12:21;;;;;;;9.57;6.10;;;;;;;25.57;48.39;101253.69;4993820;28;20234;-92
2022/05/27 07:14:47;;;;;;;11.27;6.55;;;;;;;25.85;48.13;101243.72;4974230;28;20026;-90
2022/05/27 07:17:15;;;;;;;11.23;6.22;;;;;;;25.67;47.54;101225.50;4977170;28;20045;-91
2022/05/27 07:19:48;;;;;;;8.70;6.60;;;;;;;25.79;47.67;101241.94;4991722;28;20068;-89
2022/05/27 07:22:43;;;;;;;11.30;6.28;;;;;;;26.40;46.95;101247.66;4997028;28;20041;-86
2022/05/27 07:25:16;;;;;;;9.68;6.80;;;;;;;25.99;46.46;101252.50;4993780;28;20100;-87
2022/05/27 07:27:42;;;;;;;9.57;6.32;;;;;;;25.98;46.65;101250.84;4996582;28;20033;-87
2022/05/27 07:30:09;;;;;;;9.63;6.45;;;;;;;25.58;48.33;101232.47;5010235;28;20030;-91
2022/05/27 07:32:37;;;;;;;8.45;6.70;;;;;;;25.47;48.50;101229.56;4961385;28;20611;-86
2022/05/27 07:35:16;;;;;;;9.30;6.82;;;;;;;25.51;48.57;101240.06;5007042;28;20061;-85
2022/05/27 07:37:46;;;;;;;9.32;6.45;;;;;;;24.99;49.28;101235.44;4982204;28;20489;-85
2022/05/27 07:40:17;;;;;;;6.88;6.18;;;;;;;25.09;49.16;101240.31;4990175;28;20111;-86
2022/05/27 07:42:47;;;;;;;9.07;6.10;;;;;;;25.59;48.54;101258.91;4975057;28;20065;-86
2022/05/27 07:45:13;;;;;;;7.93;6.30;;;;;;;25.26;48.93;101258.59;4979454;28;20053;-88
2022/05/27 07:47:42;;;;;;;8.43;6.25;;;;;;;25.16;47.88;101247.31;4969739;28;20374;-88
2022/05/27 07:50:13;;;;;;;9.55;6.20;;;;;;;25.34;48.02;101259.28;4963544;28;20418;-90
2022/05/27 07:52:50;;;;;;;11.77;5.35;;;;;;;25.53;48.02;101259.91;4968247;28;20146;-86
2022/05/27 07:55:17;;;;;;;7.32;5.50;;;;;;;25.75;47.82;101266.38;4960282;28;20038;-87
2022/05/27 07:57:44;;;;;;;8.80;5.90;;;;;;;25.86;47.36;101251.75;4955886;28;20109;-84
2022/05/27 08:00:18;;;;;;;9.30;6.20;;;;;;;26.31;45.86;101263.78;4985666;28;20454;-82
2022/05/27 08:02:45;;;;;;;10.10;6.10;;;;;;;26.73;44.96;101260.56;4970876;28;20143;-85
2022/05/27 08:05:13;;;;;;;5.80;4.90;;;;;;;27.10;44.89;101247.00;4946541;28;20050;-85
2022/05/27 08:07:42;;;;;;;9.45;4.95;;;;;;;27.68;43.50;101252.91;4967349;28;20038;-86
2022/05/27 08:10:09;;;;;;;8.23;5.50;;;;;;;27.80;41.84;101250.00;4992050;28;20030;-84
2022/05/27 08:12:36;;;;;;;8.60;5.40;;;;;;;27.44;42.43;101241.38;4985903;28;20121;-89
2022/05/27 08:15:05;;;;;;;7.22;5.35;;;;;;;27.95;42.15;101272.25;4966709;28;20132;-86
2022/05/27 08:17:31;;;;;;;8.20;5.35;;;;;;;27.62;42.74;101262.25;4995554;28;20479;-84
2022/05/27 08:20:00;;;;;;;9.13;5.38;;;;;;;27.24;43.31;101249.41;4991633;28;20055;-84
2022/05/27 08:22:25;;;;;;;8.20;4.82;;;;;;;27.34;43.42;101272.44;4981287;28;20084;-85
2022/05/27 08:24:55;;;;;;;8.15;4.93;;;;;;;27.42;43.25;101257.34;4958564;28;20495;-86
2022/05/27 08:27:33;;;;;;;9.55;5.30;;;;;;;28.16;41.87;101247.56;4987976;28;20038;-88
2022/05/27 08:30:02;;;;;;;8.73;5.40;;;;;;;28.48;41.00;101246.72;4978859;28;20502;-84
2022/05/27 08:32:30;;;;;;;7.82;5.20;;;;;;;29.19;38.93;101265.66;4970841;28;20035;-86
2022/05/27 08:41:05;;;;;;;6.75;4.82;;;;;;;30.76;36.79;101260.50;4962164;28;20037;-84
2022/05/27 08:43:41;;;;;;;11.15;5.40;;;;;;;31.18;35.40;101259.25;4992993;28;20065;-83
2022/05/27 08:46:24;;;;;;;8.00;5.38;;;;;;;30.10;35.80;101261.41;4979263;28;20089;-85
2022/05/27 08:48:55;;;;;;;11.07;5.40;;;;;;;29.66;37.88;101262.75;4982816;28;20064;-83
2022/05/27 08:51:29;;;;;;;12.20;5.93;;;;;;;29.89;37.23;101241.19;4978283;28;20073;-84
2022/05/27 08:54:16;;;;;;;9.32;6.03;;;;;;;29.88;37.38;101253.38;4974971;28;20037;-84
2022/05/27 08:59:40;;;;;;;8.05;5.70;;;;;;;30.19;37.31;101232.03;4962984;28;20631;-86
2022/05/27 09:02:40;;;;;;;7.00;5.13;;;;;;;30.58;35.98;101253.63;4993965;28;20042;-85
2022/05/27 09:05:59;;;;;;;8.48;5.40;;;;;;;30.36;36.84;101253.94;4993325;28;20045;-85
2022/05/27 09:08:27;;;;;;;6.88;4.95;;;;;;;30.35;36.17;101262.56;4904682;29;20040;-84
2022/05/27 09:10:56;;;;;;;7.75;5.35;;;;;;;30.42;35.20;101252.81;4887459;29;20055;-86
2022/05/27 09:13:34;;;;;;;8.77;5.45;;;;;;;30.31;36.50;101247.56;4909018;29;20162;-86
2022/05/27 09:16:30;;;;;;;8.13;5.53;;;;;;;31.45;34.45;101244.16;4950385;28;20477;-85
2022/05/27 09:19:02;;;;;;;7.18;5.13;;;;;;;31.53;34.12;101243.53;4994233;28;20061;-84
2022/05/27 09:21:55;;;;;;;15.65;6.28;;;;;;;30.85;35.36;101239.41;4967029;28;20112;-85
2022/05/27 09:24:24;;;;;;;9.50;5.65;;;;;;;30.18;35.71;101240.59;4991761;28;20173;-87
2022/05/27 09:27:26;;;;;;;10.57;5.78;;;;;;;30.40;35.96;101238.41;5000105;28;20046;-83
2022/05/27 09:30:06;;;;;;;8.60;5.88;;;;;;;31.11;34.48;101237.34;4995144;28;20026;-86
2022/05/27 09:33:01;;;;;;;11.93;6.05;;;;;;;30.86;33.57;101218.88;4972369;28;20029;-85
2022/05/27 09:35:35;;;;;;;10.27;6.20;;;;;;;31.93;32.61;101233.25;4975873;28;20031;-84
2022/05/27 09:38:04;;;;;;;11.90;6.10;;;;;;;32.04;32.53;101231.25;4966555;28;20103;-84
2022/05/27 09:40:46;;;;;;;13.82;6.15;;;;;;;33.13;30.53;101229.78;4959990;28;20062;-85
2022/05/27 09:43:40;;;;;;;7.53;5.80;;;;;;;32.24;30.87;101227.44;4977581;28;20033;-82
2022/05/27 09:46:11;;;;;;;13.10;5.95;;;;;;;33.17;29.20;101211.38;4968393;28;20053;-83
2022/05/27 09:48:37;;;;;;;11.75;6.65;;;;;;;33.28;29.68;101224.03;4942193;28;20125;-86
2022/05/27 09:51:08;;;;;;;7.35;6.65;;;;;;;33.34;29.73;101208.03;4979154;28;20113;-86
2022/05/27 09:53:38;;;;;;;11.60;7.45;;;;;;;33.41;29.13;101226.06;4964281;28;20148;-85
2022/05/27 09:56:08;;;;;;;7.68;6.80;;;;;;;33.76;28.39;101215.53;5003545;28;20120;-87
2022/05/27 09:58:40;;;;;;;8.75;7.50;;;;;;;33.82;28.63;101224.63;4973203;28;20019;-88
2022/05/27 10:01:25;;;;;;;12.52;7.45;;;;;;;34.03;27.84;101219.53;4979289;28;20044;-88
2022/05/27 10:04:01;;;;;;;7.70;5.90;;;;;;;32.87;29.07;101218.97;4968784;28;20039;-88
2022/05/27 10:06:27;;;;;;;8.68;6.13;;;;;;;33.15;29.48;101221.97;4956943;28;20480;-89
2022/05/27 10:08:58;;;;;;;6.90;5.70;;;;;;;33.00;29.03;101209.06;4947297;28;20034;-89
2022/05/27 10:11:23;;;;;;;8.73;5.82;;;;;;;33.05;29.30;101211.81;4973232;28;20116;-88
2022/05/27 10:14:13;;;;;;;8.55;5.10;;;;;;;32.21;30.91;101220.50;4985147;28;20042;-87
2022/05/27 10:16:40;;;;;;;8.65;5.65;;;;;;;33.50;28.72;101206.69;4965647;28;20108;-87
2022/05/27 10:19:15;;;;;;;6.75;4.93;;;;;;;34.69;26.71;101206.31;4976143;28;20471;-88
2022/05/27 10:22:00;;;;;;;8.27;5.65;;;;;;;34.84;26.15;101205.16;4999024;28;20042;-88
2022/05/27 10:24:31;;;;;;;9.27;6.40;;;;;;;33.98;27.38;101202.88;5008964;28;20401;-87
2022/05/27 10:27:05;;;;;;;7.32;6.03;;;;;;;33.11;28.70;101198.66;4993362;28;20045;-87
2022/05/27 10:29:32;;;;;;;7.33;5.50;;;;;;;32.96;29.39;101203.25;4980545;28;20059;-86
2022/05/27 10:31:59;;;;;;;8.32;5.68;;;;;;;32.71;29.52;101195.22;5001367;28;20034;-86
2022/05/27 10:34:41;;;;;;;7.18;4.90;;;;;;;33.07;29.42;101192.84;4993004;28;20037;-86
2022/05/27 10:37:33;;;;;;;6.07;4.60;;;;;;;33.31;28.58;101201.13;5003485;28;20038;-87
2022/05/27 10:40:26;;;;;;;5.95;4.15;;;;;;;32.76;29.03;101203.53;5004949;28;20054;-88
2022/05/27 10:43:07;;;;;;;6.15;4.05;;;;;;;32.22;30.38;101199.06;5013203;28;20124;-89
2022/05/27 10:45:38;;;;;;;7.43;4.25;;;;;;;31.67;31.02;101194.53;5003800;28;20102;-89
2022/05/27 10:48:40;;;;;;;7.95;4.07;;;;;;;31.33;31.79;101195.31;4963598;28;20061;-89
2022/05/27 10:51:15;;;;;;;6.55;4.50;;;;;;;30.03;32.54;101189.63;4993208;28;20030;-87
2022/05/27 10:54:06;;;;;;;5.55;4.22;;;;;;;29.26;34.46;101191.47;5012617;28;20026;-87
2022/05/27 10:56:42;;;;;;;7.45;4.65;;;;;;;28.76;35.39;101184.66;5003148;28;20049;-85
2022/05/27 11:02:30;;;;;;;7.30;4.15;;;;;;;28.61;37.27;101177.09;4982152;28;20108;-84
2022/05/27 11:05:20;;;;;;;8.25;4.07;;;;;;;28.23;37.43;101178.22;4974302;28;20060;-84
2022/05/27 11:08:14;;;;;;;6.93;4.03;;;;;;;27.77;37.52;101181.47;4996871;28;20133;-85
2022/05/27 11:11:17;;;;;;;9.95;4.65;;;;;;;27.17;40.41;101178.63;4986918;28;20037;-83
2022/05/27 11:17:01;;;;;;;6.22;4.15;;;;;;;26.91;40.14;101173.94;4983609;28;20061;-84
2022/05/27 11:20:02;;;;;;;7.68;4.40;;;;;;;27.25;39.46;101166.31;4994604;28;20137;-85
2022/05/27 11:22:43;;;;;;;5.90;3.50;;;;;;;27.24;38.30;101163.84;4978651;28;20044;-84
2022/05/27 11:25:34;;;;;;;6.45;4.03;;;;;;;26.69;38.24;101161.00;5006277;28;20026;-84
2022/05/27 11:28:17;;;;;;;5.10;3.55;;;;;;;26.60;39.15;101156.16;4995793;28;20084;-82
2022/05/27 11:31:27;;;;;;;6.70;3.70;;;;;;;26.46;40.83;101152.94;4993523;28;20479;-82
2022/05/27 11:34:13;;;;;;;5.63;3.67;;;;;;;26.17;40.80;101146.72;4998620;28;20046;-84
2022/05/27 11:37:23;;;;;;;8.27;3.75;;;;;;;25.93;40.28;101146.09;5004957;28;20143;-84
2022/05/27 11:40:15;;;;;;;7.70;3.67;;;;;;;25.73;41.16;101138.28;4988893;28;20054;-85
2022/05/27 11:42:46;;;;;;;7.15;3.40;;;;;;;25.65;41.85;101139.56;4968924;28;20038;-90
2022/05/27 11:45:21;;;;;;;5.80;3.20;;;;;;;25.69;43.02;101135.22;5029406;28;20413;-91
2022/05/27 11:47:56;;;;;;;6.15;3.60;;;;;;;26.14;42.67;101137.03;5003631;28;20030;-89
2022/05/27 11:51:16;;;;;;;5.97;3.60;;;;;;;25.86;42.83;101136.06;5025095;28;20070;-89
2022/05/27 11:54:27;;;;;;;4.40;3.25;;;;;;;25.60;42.54;101131.22;4951481;28;20050;-86
2022/05/27 11:57:15;;;;;;;7.03;3.50;;;;;;;26.14;41.51;101128.78;5005524;28;20042;-87
2022/05/27 11:59:49;;;;;;;6.38;3.40;;;;;;;26.20;41.94;101122.25;5022399;28;20040;-91
2022/05/27 12:02:47;;;;;;;7.47;3.15;;;;;;;26.01;42.06;101116.22;4976822;28;20127;-92
2022/05/27 12:05:32;;;;;;;6.35;3.80;;;;;;;25.75;43.31;101101.16;4996690;28;20045;-89
2022/05/27 12:08:11;;;;;;;5.35;3.45;;;;;;;25.23;44.72;101098.63;4974809;28;20038;-87
2022/05/27 12:11:14;;;;;;;7.07;3.85;;;;;;;25.16;46.13;101097.94;5021331;28;20115;-86
2022/05/27 12:13:47;;;;;;;5.90;3.80;;;;;;;25.06;46.97;101107.66;4983876;28;20438;-84
2022/05/27 12:16:31;;;;;;;16.90;4.10;;;;;;;25.38;47.55;101101.69;4981113;28;20042;-83
2022/05/27 12:19:02;;;;;;;8.43;3.92;;;;;;;25.59;47.16;101075.31;4984405;28;20029;-86
2022/05/27 12:21:31;;;;;;;8.77;4.72;;;;;;;25.33;49.29;101090.56;4988948;28;20302;-90
2022/05/27 12:24:00;;;;;;;6.93;4.30;;;;;;;25.35;49.57;101080.13;4976261;28;20049;-88
2022/05/27 12:26:36;;;;;;;6.88;4.38;;;;;;;25.78;48.50;101089.66;4984476;28;20030;-85
2022/05/27 12:29:06;;;;;;;7.88;4.20;;;;;;;24.71;49.90;101069.31;4972936;28;20399;-85